Greenville, Wisconsin
Current Conditions -  °F | °C
As of 8:45 AM on Sunday 23 Nov 2014 (Local Time) from KATW Reporting Station
Moderate Fog Moderate Fog  
Wind Chill: 39°   Ceiling: 200
Heat Index: 45°   Visibility: 0.25mi
Dew Point: 45°   Wind: 10mph
Humidity: 100%   Direction: 170°S
Pressure: 29.63"   Gusts: NA
Location:  44.3°N, 88.54°W
Report Text: KATW 231445Z 17009KT 1/4SM R03/3500FT FG VV002 07/07 A2963
Loading
Personal Weather Stations






























Interactive Weather Map New forecast layout! Learn more

10-Day Weather Forecast

Advertisements
Track Severe Weather on mobile